Time;durP1;ratioP1;P1;durP2;ratioP2;P2;SDS_P1;SDS_P2;PMS_P1;PMS_P2;Temp;Humidity;BMP_temperature;BMP_pressure;BME280_temperature;BME280_humidity;BME280_pressure;Samples;Min_cycle;Max_cycle;Signal;HPM_P1;HPM_P2
2021/07/05 00:00:10;;;;;;;0.95;0.70;;;;;;;;;;5028102;28;20029;-71
2021/07/05 00:02:35;;;;;;;0.70;0.70;;;;;;;;;;5029820;28;20053;-70
2021/07/05 00:05:01;;;;;;;0.73;0.60;;;;;;;;;;5027020;28;20080;-71
2021/07/05 00:07:26;;;;;;;1.13;0.80;;;;;;;;;;5028228;28;20079;-71
2021/07/05 00:09:51;;;;;;;0.70;0.70;;;;;;;;;;5029500;28;20080;-71
2021/07/05 00:12:16;;;;;;;2.42;0.80;;;;;;;;;;5030522;28;20041;-71
2021/07/05 00:14:41;;;;;;;2.50;0.80;;;;;;;;;;5033992;28;20021;-74
2021/07/05 00:17:07;;;;;;;0.95;0.95;;;;;;;;;;5031727;28;20049;-71
2021/07/05 00:19:32;;;;;;;1.95;0.70;;;;;;;;;;5031858;28;20074;-72
2021/07/05 00:21:57;;;;;;;2.15;0.75;;;;;;;;;;5030584;28;20258;-71
2021/07/05 00:24:23;;;;;;;0.80;0.80;;;;;;;;;;5046033;23;20120;-68
2021/07/05 00:26:48;;;;;;;0.80;0.77;;;;;;;;;;5071511;28;20093;-66
2021/07/05 00:29:13;;;;;;;1.77;0.90;;;;;;;;;;5072087;28;20409;-66
2021/07/05 00:31:39;;;;;;;1.90;1.10;;;;;;;;;;5070627;28;20197;-67
2021/07/05 00:34:04;;;;;;;0.82;0.70;;;;;;;;;;5071478;28;20404;-66
2021/07/05 00:36:29;;;;;;;2.83;0.93;;;;;;;;;;5071260;28;20029;-66
2021/07/05 00:38:55;;;;;;;0.80;0.80;;;;;;;;;;5071232;28;20474;-66
2021/07/05 00:41:20;;;;;;;1.40;0.85;;;;;;;;;;5059237;28;20083;-67
2021/07/05 00:43:45;;;;;;;1.30;1.08;;;;;;;;;;5059078;28;20036;-67
2021/07/05 00:46:10;;;;;;;2.05;1.00;;;;;;;;;;5071014;28;20033;-68
2021/07/05 00:48:35;;;;;;;4.00;1.10;;;;;;;;;;5070867;28;20032;-68
2021/07/05 00:51:01;;;;;;;1.15;1.05;;;;;;;;;;5069642;28;20024;-67
2021/07/05 00:53:26;;;;;;;1.67;1.27;;;;;;;;;;5072430;28;20031;-68
2021/07/05 00:55:51;;;;;;;3.38;1.33;;;;;;;;;;5061372;28;20140;-67
2021/07/05 00:58:17;;;;;;;3.85;1.38;;;;;;;;;;5050436;28;20526;-68
2021/07/05 01:00:43;;;;;;;1.38;1.33;;;;;;;;;;5050995;28;20552;-68
2021/07/05 01:03:08;;;;;;;1.60;1.50;;;;;;;;;;5050446;28;20104;-68
2021/07/05 01:05:33;;;;;;;1.13;1.13;;;;;;;;;;5051416;28;20048;-67
2021/07/05 01:07:59;;;;;;;3.13;1.55;;;;;;;;;;5049342;28;20398;-67
2021/07/05 01:10:24;;;;;;;1.75;1.50;;;;;;;;;;5046045;28;20094;-68
2021/07/05 01:12:51;;;;;;;5.28;1.10;;;;;;;;;;5047268;28;20029;-67
2021/07/05 01:15:18;;;;;;;2.22;1.50;;;;;;;;;;5050583;28;20053;-68
2021/07/05 01:17:44;;;;;;;3.50;1.50;;;;;;;;;;5051033;28;20167;-67
2021/07/05 01:20:10;;;;;;;1.50;1.40;;;;;;;;;;5050279;28;20137;-67
2021/07/05 01:22:36;;;;;;;1.95;1.52;;;;;;;;;;5049665;28;20061;-67
2021/07/05 01:25:02;;;;;;;1.88;1.63;;;;;;;;;;5049623;28;20574;-68
2021/07/05 01:27:27;;;;;;;2.05;1.63;;;;;;;;;;5050228;28;20071;-68
2021/07/05 01:29:52;;;;;;;1.45;1.35;;;;;;;;;;5050148;28;20102;-66
2021/07/05 01:32:18;;;;;;;1.50;1.40;;;;;;;;;;5051753;28;20032;-67
2021/07/05 01:34:43;;;;;;;1.48;1.25;;;;;;;;;;5050125;28;20179;-67
2021/07/05 01:37:09;;;;;;;1.65;1.52;;;;;;;;;;5050188;28;20029;-67
2021/07/05 01:39:34;;;;;;;2.20;1.25;;;;;;;;;;5048639;28;20037;-68
2021/07/05 01:41:59;;;;;;;3.47;1.60;;;;;;;;;;5049269;28;20067;-67
2021/07/05 01:44:25;;;;;;;2.72;1.63;;;;;;;;;;5051377;28;20032;-68
2021/07/05 01:46:50;;;;;;;3.50;1.50;;;;;;;;;;5048619;28;20037;-68
2021/07/05 01:49:15;;;;;;;5.07;1.50;;;;;;;;;;5050080;28;20021;-68
2021/07/05 01:51:40;;;;;;;2.67;1.23;;;;;;;;;;5049988;28;20056;-68
2021/07/05 01:54:06;;;;;;;4.18;1.33;;;;;;;;;;5049435;28;20025;-67
2021/07/05 01:56:31;;;;;;;2.72;1.40;;;;;;;;;;5050902;28;20515;-68
2021/07/05 01:58:57;;;;;;;2.22;1.48;;;;;;;;;;5049428;28;20041;-67
2021/07/05 02:01:22;;;;;;;1.67;1.10;;;;;;;;;;5049780;28;20064;-68
2021/07/05 02:03:48;;;;;;;1.40;1.30;;;;;;;;;;5049501;28;20041;-67
2021/07/05 02:06:13;;;;;;;1.60;1.23;;;;;;;;;;5049525;28;20119;-67
2021/07/05 02:08:39;;;;;;;3.13;1.20;;;;;;;;;;5050060;28;20028;-67
2021/07/05 02:11:04;;;;;;;2.40;1.30;;;;;;;;;;5048790;28;20080;-68
2021/07/05 02:13:31;;;;;;;1.40;1.30;;;;;;;;;;5048977;28;20029;-68
2021/07/05 02:15:57;;;;;;;1.40;1.30;;;;;;;;;;5049314;28;20045;-67
2021/07/05 02:18:23;;;;;;;1.33;1.23;;;;;;;;;;5049479;28;20037;-67
2021/07/05 02:20:49;;;;;;;2.13;1.30;;;;;;;;;;5051266;28;20400;-68
2021/07/05 02:23:15;;;;;;;1.60;1.50;;;;;;;;;;5047393;28;20059;-68
2021/07/05 02:25:41;;;;;;;1.48;1.20;;;;;;;;;;5048568;28;20037;-68
2021/07/05 02:28:16;;;;;;;4.30;1.50;;;;;;;;;;5048285;28;20052;-68
2021/07/05 02:30:44;;;;;;;4.72;1.50;;;;;;;;;;5048260;28;20029;-67
2021/07/05 02:33:09;;;;;;;1.55;1.45;;;;;;;;;;5047857;28;20021;-68
2021/07/05 02:35:35;;;;;;;1.48;1.20;;;;;;;;;;5051120;28;20570;-68
2021/07/05 02:38:01;;;;;;;2.25;1.55;;;;;;;;;;5048978;28;20407;-67
2021/07/05 02:40:28;;;;;;;4.13;1.45;;;;;;;;;;5048463;28;20029;-68
2021/07/05 02:42:53;;;;;;;5.05;1.65;;;;;;;;;;5048260;28;20067;-68
2021/07/05 02:45:23;;;;;;;1.88;1.58;;;;;;;;;;5047231;28;20078;-68
2021/07/05 02:47:52;;;;;;;3.25;1.58;;;;;;;;;;5050771;28;20025;-68
2021/07/05 02:50:18;;;;;;;1.83;1.40;;;;;;;;;;5048842;28;20080;-68
2021/07/05 02:52:43;;;;;;;2.05;1.42;;;;;;;;;;5048355;28;20052;-68
2021/07/05 02:55:09;;;;;;;2.47;1.70;;;;;;;;;;5048444;28;20037;-68
2021/07/05 02:57:35;;;;;;;4.47;1.92;;;;;;;;;;5047649;28;20025;-67
2021/07/05 03:00:06;;;;;;;4.70;1.70;;;;;;;;;;5048416;28;20013;-67
2021/07/05 03:02:31;;;;;;;1.60;1.40;;;;;;;;;;5049985;28;20504;-68
2021/07/05 03:05:00;;;;;;;2.30;1.50;;;;;;;;;;5048268;28;20037;-68
2021/07/05 03:07:26;;;;;;;1.95;1.60;;;;;;;;;;5048258;28;20040;-67
2021/07/05 03:09:51;;;;;;;1.75;1.65;;;;;;;;;;5048520;28;20025;-67
2021/07/05 03:12:16;;;;;;;2.55;1.73;;;;;;;;;;5047016;28;20390;-67
2021/07/05 03:14:41;;;;;;;1.90;1.80;;;;;;;;;;5050225;28;20485;-67
2021/07/05 03:17:07;;;;;;;2.97;2.78;;;;;;;;;;5048329;28;20040;-67
2021/07/05 03:19:32;;;;;;;2.10;1.95;;;;;;;;;;5048222;28;20048;-67
2021/07/05 03:21:57;;;;;;;3.92;2.38;;;;;;;;;;5048352;28;20102;-67
2021/07/05 03:24:22;;;;;;;2.10;2.00;;;;;;;;;;5047784;28;20107;-67
2021/07/05 03:26:48;;;;;;;2.65;2.50;;;;;;;;;;5049525;28;20275;-67
2021/07/05 03:29:13;;;;;;;3.03;2.03;;;;;;;;;;5048079;28;20073;-67
2021/07/05 03:31:38;;;;;;;6.63;3.38;;;;;;;;;;5048209;28;20094;-68
2021/07/05 03:34:03;;;;;;;3.78;3.30;;;;;;;;;;5047698;28;20106;-67
2021/07/05 03:36:29;;;;;;;3.13;2.40;;;;;;;;;;5048334;28;20041;-67
2021/07/05 03:38:54;;;;;;;2.47;2.25;;;;;;;;;;5049917;28;20482;-64
2021/07/05 03:41:19;;;;;;;3.10;2.90;;;;;;;;;;5047861;28;20025;-70
2021/07/05 03:43:45;;;;;;;3.65;2.15;;;;;;;;;;5056713;28;20043;-67
2021/07/05 03:46:10;;;;;;;3.28;2.67;;;;;;;;;;5072358;28;20029;-67
2021/07/05 03:48:35;;;;;;;7.10;3.00;;;;;;;;;;5072067;28;20547;-67
2021/07/05 03:51:00;;;;;;;2.78;2.58;;;;;;;;;;5072044;28;20413;-68
2021/07/05 03:53:25;;;;;;;4.90;2.63;;;;;;;;;;5073482;28;20485;-68
2021/07/05 03:55:51;;;;;;;2.95;2.25;;;;;;;;;;5069080;28;20068;-68
2021/07/05 03:58:17;;;;;;;5.93;3.10;;;;;;;;;;5056229;28;20029;-68
2021/07/05 04:00:42;;;;;;;2.28;2.10;;;;;;;;;;5071875;28;20090;-67
2021/07/05 04:03:07;;;;;;;3.17;2.40;;;;;;;;;;5071394;28;20040;-67
2021/07/05 04:05:33;;;;;;;1.92;1.83;;;;;;;;;;5074067;28;20062;-68
2021/07/05 04:07:59;;;;;;;1.73;1.48;;;;;;;;;;5071703;28;20036;-67
2021/07/05 04:10:25;;;;;;;1.00;1.00;;;;;;;;;;5071839;28;20119;-68
2021/07/05 04:12:50;;;;;;;2.45;1.13;;;;;;;;;;5044770;28;20183;-68
2021/07/05 04:15:16;;;;;;;2.47;0.85;;;;;;;;;;5051716;28;20602;-68
2021/07/05 04:17:41;;;;;;;1.30;0.93;;;;;;;;;;5053455;28;20021;-68
2021/07/05 04:20:08;;;;;;;1.40;0.77;;;;;;;;;;5051434;28;20055;-68
2021/07/05 04:22:33;;;;;;;1.15;0.80;;;;;;;;;;5051255;28;20079;-68
2021/07/05 04:24:58;;;;;;;1.33;1.23;;;;;;;;;;5051307;28;20041;-68
2021/07/05 04:27:23;;;;;;;1.30;1.03;;;;;;;;;;5049616;28;20072;-68
2021/07/05 04:29:49;;;;;;;2.37;1.07;;;;;;;;;;5052887;28;20640;-68
2021/07/05 04:32:14;;;;;;;1.83;1.00;;;;;;;;;;5050637;28;20271;-69
2021/07/05 04:34:39;;;;;;;0.82;0.60;;;;;;;;;;5051289;28;20036;-68
2021/07/05 04:37:05;;;;;;;3.90;1.00;;;;;;;;;;5051349;28;20037;-68
2021/07/05 04:39:30;;;;;;;0.93;0.85;;;;;;;;;;5051158;28;20033;-68
2021/07/05 04:41:55;;;;;;;0.95;0.85;;;;;;;;;;5050507;28;20033;-67
2021/07/05 04:44:21;;;;;;;0.63;0.50;;;;;;;;;;5066378;28;20017;-69
2021/07/05 04:46:50;;;;;;;1.17;1.08;;;;;;;;;;5071132;28;20459;-68
2021/07/05 04:49:16;;;;;;;2.97;0.95;;;;;;;;;;5071473;28;20035;-68
2021/07/05 04:51:41;;;;;;;2.85;0.88;;;;;;;;;;5071052;28;20040;-67
2021/07/05 04:54:06;;;;;;;5.13;1.00;;;;;;;;;;5070515;28;20681;-68
2021/07/05 04:56:33;;;;;;;3.88;0.80;;;;;;;;;;5066153;28;20522;-67
2021/07/05 04:58:59;;;;;;;3.15;0.90;;;;;;;;;;5050288;28;20072;-68
2021/07/05 05:01:24;;;;;;;2.80;0.90;;;;;;;;;;5050589;28;20098;-68
2021/07/05 05:03:49;;;;;;;2.70;0.90;;;;;;;;;;5050448;28;20298;-68
2021/07/05 05:06:14;;;;;;;3.70;1.10;;;;;;;;;;5050726;28;20444;-68
2021/07/05 05:08:39;;;;;;;4.77;1.00;;;;;;;;;;5052510;28;20413;-68
2021/07/05 05:11:05;;;;;;;0.87;0.70;;;;;;;;;;5050087;28;20693;-68
2021/07/05 05:13:30;;;;;;;2.78;0.93;;;;;;;;;;5056277;28;20775;-69
2021/07/05 05:15:56;;;;;;;1.10;0.80;;;;;;;;;;5070603;28;20047;-68
2021/07/05 05:18:21;;;;;;;1.23;0.70;;;;;;;;;;5070684;28;20027;-68
2021/07/05 05:20:46;;;;;;;2.05;0.90;;;;;;;;;;5072458;28;20023;-68
2021/07/05 05:23:11;;;;;;;2.03;1.27;;;;;;;;;;5069870;28;20024;-68
2021/07/05 05:25:37;;;;;;;1.90;0.63;;;;;;;;;;5070349;28;20635;-68
2021/07/05 05:28:02;;;;;;;2.28;0.80;;;;;;;;;;5048048;28;20931;-69
2021/07/05 05:30:27;;;;;;;2.53;0.80;;;;;;;;;;5045660;28;20055;-67
2021/07/05 05:32:54;;;;;;;0.65;0.65;;;;;;;;;;5031847;28;20014;-68
2021/07/05 05:35:20;;;;;;;2.33;1.45;;;;;;;;;;5030308;28;20132;-68
2021/07/05 05:37:46;;;;;;;1.17;0.80;;;;;;;;;;5030288;28;20025;-69
2021/07/05 05:40:11;;;;;;;2.90;1.00;;;;;;;;;;5028862;28;20048;-69
2021/07/05 05:42:37;;;;;;;1.33;0.80;;;;;;;;;;5036915;28;20025;-69
2021/07/05 05:45:02;;;;;;;0.95;0.80;;;;;;;;;;5050034;28;20040;-69
2021/07/05 05:47:27;;;;;;;0.88;0.88;;;;;;;;;;5050259;28;20020;-69
2021/07/05 05:49:53;;;;;;;2.83;0.90;;;;;;;;;;5049969;28;20513;-69
2021/07/05 05:52:18;;;;;;;0.80;0.80;;;;;;;;;;5049412;28;20768;-69
2021/07/05 05:54:43;;;;;;;1.90;0.73;;;;;;;;;;5049612;28;20340;-69
2021/07/05 05:57:24;;;;;;;1.33;0.90;;;;;;;;;;5048860;28;20348;-69
2021/07/05 05:59:50;;;;;;;2.40;0.60;;;;;;;;;;5051348;28;20255;-69
2021/07/05 06:02:15;;;;;;;2.00;0.88;;;;;;;;;;5047627;28;20044;-69
2021/07/05 06:04:40;;;;;;;2.00;0.70;;;;;;;;;;5049408;28;20064;-69
2021/07/05 06:07:05;;;;;;;0.90;0.60;;;;;;;;;;5048467;28;20310;-69
2021/07/05 06:09:30;;;;;;;1.70;0.90;;;;;;;;;;5049096;28;20362;-69
2021/07/05 06:11:56;;;;;;;1.00;0.90;;;;;;;;;;5050364;28;20025;-70
2021/07/05 06:14:21;;;;;;;1.73;0.85;;;;;;;;;;5048617;28;20337;-69
2021/07/05 06:16:46;;;;;;;1.20;0.50;;;;;;;;;;5049147;28;20041;-69
2021/07/05 06:19:11;;;;;;;2.20;0.60;;;;;;;;;;5048028;28;20271;-69
2021/07/05 06:21:37;;;;;;;0.70;0.70;;;;;;;;;;5049309;28;20067;-69
2021/07/05 06:24:02;;;;;;;1.17;0.70;;;;;;;;;;5048891;28;20046;-69
2021/07/05 06:26:28;;;;;;;2.92;0.95;;;;;;;;;;5050209;28;20090;-69
2021/07/05 06:28:53;;;;;;;2.05;0.70;;;;;;;;;;5048510;28;20041;-69
2021/07/05 06:31:19;;;;;;;0.43;0.40;;;;;;;;;;5049027;28;20033;-70
2021/07/05 06:33:44;;;;;;;1.10;0.50;;;;;;;;;;5046942;28;20041;-69
2021/07/05 06:36:11;;;;;;;0.60;0.60;;;;;;;;;;5048797;28;20036;-69
2021/07/05 06:38:37;;;;;;;1.08;0.52;;;;;;;;;;5050905;28;20009;-69
2021/07/05 06:41:02;;;;;;;2.03;0.90;;;;;;;;;;5048758;28;20052;-69
2021/07/05 06:43:27;;;;;;;2.80;0.60;;;;;;;;;;5047501;28;20041;-69
2021/07/05 06:45:53;;;;;;;1.02;0.68;;;;;;;;;;5048651;28;20271;-69
2021/07/05 06:48:18;;;;;;;3.25;0.75;;;;;;;;;;5048688;28;20068;-69
2021/07/05 06:50:43;;;;;;;0.88;0.63;;;;;;;;;;5050583;28;20032;-69
2021/07/05 06:53:09;;;;;;;0.82;0.82;;;;;;;;;;5048555;28;20175;-69
2021/07/05 06:55:34;;;;;;;0.77;0.60;;;;;;;;;;5048567;28;20068;-69
2021/07/05 06:58:00;;;;;;;2.28;0.70;;;;;;;;;;5047430;28;20571;-68
2021/07/05 07:00:27;;;;;;;2.57;0.80;;;;;;;;;;5048594;28;20048;-69
2021/07/05 07:02:52;;;;;;;2.22;0.70;;;;;;;;;;5049943;28;20300;-69
2021/07/05 07:05:18;;;;;;;0.80;0.65;;;;;;;;;;5047977;28;20053;-69
2021/07/05 07:07:45;;;;;;;0.70;0.70;;;;;;;;;;5046994;28;20402;-69
2021/07/05 07:10:11;;;;;;;0.70;0.70;;;;;;;;;;5048516;28;20029;-69
2021/07/05 07:12:37;;;;;;;0.98;0.60;;;;;;;;;;5047029;28;20127;-69
2021/07/05 07:15:09;;;;;;;0.60;0.60;;;;;;;;;;5048016;28;20020;-68
2021/07/05 07:17:45;;;;;;;1.67;0.85;;;;;;;;;;5050144;28;20036;-70
2021/07/05 07:20:12;;;;;;;2.05;0.63;;;;;;;;;;5046505;28;20029;-69
2021/07/05 07:22:37;;;;;;;1.00;0.70;;;;;;;;;;5046408;28;20486;-71
2021/07/05 07:25:03;;;;;;;5.05;0.70;;;;;;;;;;5048381;28;20044;-69
2021/07/05 07:27:29;;;;;;;2.38;1.45;;;;;;;;;;5047515;28;20037;-69
2021/07/05 07:29:54;;;;;;;2.10;1.70;;;;;;;;;;5050041;28;20080;-70
2021/07/05 07:32:19;;;;;;;0.87;0.73;;;;;;;;;;5046592;28;20355;-70
2021/07/05 07:34:44;;;;;;;1.00;0.87;;;;;;;;;;5046557;28;20288;-70
2021/07/05 07:37:10;;;;;;;1.00;0.60;;;;;;;;;;5048001;28;20287;-70
2021/07/05 07:39:47;;;;;;;1.58;1.00;;;;;;;;;;5048093;28;20106;-70
2021/07/05 07:42:12;;;;;;;1.60;0.60;;;;;;;;;;5046798;28;20646;-70
2021/07/05 07:44:38;;;;;;;2.15;0.90;;;;;;;;;;5049828;28;20021;-71
2021/07/05 07:47:03;;;;;;;0.75;0.70;;;;;;;;;;5048068;28;20118;-71
2021/07/05 07:49:30;;;;;;;0.73;0.73;;;;;;;;;;5047871;28;20040;-70
2021/07/05 07:51:56;;;;;;;1.75;0.80;;;;;;;;;;5048129;28;20029;-70
2021/07/05 07:54:21;;;;;;;0.90;0.50;;;;;;;;;;5046383;28;20044;-70
2021/07/05 07:56:47;;;;;;;1.13;0.70;;;;;;;;;;5049137;28;20032;-70
2021/07/05 07:59:12;;;;;;;1.03;0.90;;;;;;;;;;5051992;28;20033;-70
2021/07/05 08:01:37;;;;;;;1.53;0.83;;;;;;;;;;5052303;28;20371;-71
2021/07/05 08:04:03;;;;;;;2.20;0.57;;;;;;;;;;5047268;28;20325;-70
2021/07/05 08:06:28;;;;;;;1.85;0.60;;;;;;;;;;5047748;28;20453;-71
2021/07/05 08:08:55;;;;;;;2.42;0.60;;;;;;;;;;5049542;28;20013;-70
2021/07/05 08:11:21;;;;;;;0.60;0.60;;;;;;;;;;5047786;28;20036;-71
2021/07/05 08:13:46;;;;;;;1.40;0.80;;;;;;;;;;5046237;28;20702;-71
2021/07/05 08:16:11;;;;;;;2.45;0.70;;;;;;;;;;5047597;28;20517;-70
2021/07/05 08:18:36;;;;;;;0.67;0.40;;;;;;;;;;5047932;28;20047;-70
2021/07/05 08:21:03;;;;;;;1.17;1.03;;;;;;;;;;5047431;28;20720;-71
2021/07/05 08:23:28;;;;;;;0.77;0.77;;;;;;;;;;5049093;28;20620;-70
2021/07/05 08:25:53;;;;;;;1.52;0.57;;;;;;;;;;5047456;28;20029;-70
2021/07/05 08:28:19;;;;;;;1.50;0.80;;;;;;;;;;5046722;28;20037;-70
2021/07/05 08:30:44;;;;;;;2.03;0.55;;;;;;;;;;5056606;28;20263;-71
2021/07/05 08:33:10;;;;;;;2.47;1.10;;;;;;;;;;5071109;28;20024;-70
2021/07/05 08:35:36;;;;;;;1.23;0.77;;;;;;;;;;5073277;28;20389;-71
2021/07/05 08:38:01;;;;;;;1.92;0.85;;;;;;;;;;5071818;28;20044;-70
2021/07/05 08:40:26;;;;;;;2.47;0.85;;;;;;;;;;5071837;28;20025;-71
2021/07/05 08:42:53;;;;;;;0.73;0.57;;;;;;;;;;5062337;28;20033;-70
2021/07/05 08:45:18;;;;;;;0.68;0.60;;;;;;;;;;5051228;28;20456;-70
2021/07/05 08:47:44;;;;;;;1.73;0.38;;;;;;;;;;5052860;28;20028;-70
2021/07/05 08:50:10;;;;;;;0.70;0.70;;;;;;;;;;5051254;28;20517;-70
2021/07/05 08:52:41;;;;;;;1.10;0.80;;;;;;;;;;5049042;28;20037;-70
2021/07/05 08:55:06;;;;;;;;;;;;;;;;;;5051268;28;20083;-70
2021/07/05 08:57:38;;;;;;;2.92;1.17;;;;;;;;;;5046200;28;19913;-71
2021/07/05 09:00:24;;;;;;;1.48;0.60;;;;;;;;;;5049830;28;20086;-70
2021/07/05 09:02:50;;;;;;;0.60;0.50;;;;;;;;;;5051756;28;20371;-71
2021/07/05 09:05:15;;;;;;;0.90;0.60;;;;;;;;;;5050539;28;20114;-71
2021/07/05 09:08:01;;;;;;;1.25;0.45;;;;;;;;;;5049300;28;20411;-70
2021/07/05 09:10:26;;;;;;;0.82;0.82;;;;;;;;;;5050500;28;20029;-71
2021/07/05 09:13:12;;;;;;;1.65;0.70;;;;;;;;;;5049433;28;20025;-71
2021/07/05 09:15:42;;;;;;;2.67;0.70;;;;;;;;;;5050257;28;20116;-71
2021/07/05 09:18:24;;;;;;;0.77;0.70;;;;;;;;;;5050457;28;20044;-71
2021/07/05 09:20:49;;;;;;;;;;;;;;;;;;5052798;28;20021;-71
2021/07/05 09:23:14;;;;;;;0.90;0.70;;;;;;;;;;5048500;28;19990;-71
2021/07/05 09:25:41;;;;;;;0.85;0.52;;;;;;;;;;5050117;28;20041;-71
2021/07/05 09:28:07;;;;;;;1.27;0.60;;;;;;;;;;5049382;28;20025;-72
2021/07/05 09:30:40;;;;;;;0.65;0.60;;;;;;;;;;5049937;28;20147;-72
2021/07/05 09:33:15;;;;;;;1.23;0.70;;;;;;;;;;5049894;28;20017;-72
2021/07/05 09:35:41;;;;;;;0.50;0.50;;;;;;;;;;5051920;28;20021;-72
2021/07/05 09:38:06;;;;;;;0.73;0.50;;;;;;;;;;5048684;28;20037;-72
2021/07/05 09:40:31;;;;;;;0.70;0.70;;;;;;;;;;5049956;28;20494;-71
2021/07/05 09:42:57;;;;;;;2.37;0.50;;;;;;;;;;5047458;28;20868;-72
2021/07/05 09:45:22;;;;;;;0.60;0.45;;;;;;;;;;5049669;28;20769;-72
2021/07/05 09:48:07;;;;;;;2.47;0.70;;;;;;;;;;5051720;28;20075;-72
2021/07/05 09:50:33;;;;;;;1.10;0.65;;;;;;;;;;5050075;28;20402;-73
2021/07/05 09:52:58;;;;;;;1.10;0.90;;;;;;;;;;5049195;28;20037;-72
2021/07/05 09:55:23;;;;;;;0.50;0.50;;;;;;;;;;5049550;28;20123;-72
2021/07/05 09:57:50;;;;;;;1.10;0.60;;;;;;;;;;5048880;28;20048;-72
2021/07/05 10:00:17;;;;;;;0.55;0.55;;;;;;;;;;5049666;28;20017;-73
2021/07/05 10:03:02;;;;;;;1.70;0.70;;;;;;;;;;5051106;28;20104;-72
2021/07/05 10:05:33;;;;;;;1.48;0.77;;;;;;;;;;5049820;28;20052;-72
2021/07/05 10:07:58;;;;;;;;;;;;;;;;;;5049914;28;20036;-73
2021/07/05 10:10:24;;;;;;;2.87;0.90;;;;;;;;;;5049338;28;19931;-71
2021/07/05 10:12:58;;;;;;;0.68;0.47;;;;;;;;;;5047952;28;20711;-71
2021/07/05 10:15:26;;;;;;;0.60;0.60;;;;;;;;;;5049217;28;20048;-72
2021/07/05 10:17:53;;;;;;;2.58;0.40;;;;;;;;;;5049728;28;20013;-73
2021/07/05 10:20:21;;;;;;;1.58;0.60;;;;;;;;;;5047602;28;20033;-72
2021/07/05 10:22:48;;;;;;;1.80;0.50;;;;;;;;;;5048865;28;20116;-74
2021/07/05 10:25:14;;;;;;;0.50;0.50;;;;;;;;;;5048747;28;20387;-72
2021/07/05 10:27:39;;;;;;;0.95;0.60;;;;;;;;;;5048600;28;20036;-72
2021/07/05 10:30:06;;;;;;;0.90;0.50;;;;;;;;;;5048833;28;20017;-72
2021/07/05 10:32:31;;;;;;;1.25;0.90;;;;;;;;;;5050362;28;20564;-72
2021/07/05 10:34:56;;;;;;;0.40;0.40;;;;;;;;;;5048867;28;20123;-72
2021/07/05 10:37:31;;;;;;;0.70;0.65;;;;;;;;;;5048971;28;20051;-71
2021/07/05 10:39:57;;;;;;;0.35;0.32;;;;;;;;;;5048954;28;20029;-72
2021/07/05 10:42:27;;;;;;;1.00;0.60;;;;;;;;;;5048375;28;20037;-73
2021/07/05 10:44:52;;;;;;;0.57;0.45;;;;;;;;;;5050008;28;20374;-72
2021/07/05 10:47:38;;;;;;;0.70;0.40;;;;;;;;;;5048749;28;20120;-72
2021/07/05 10:50:03;;;;;;;0.60;0.50;;;;;;;;;;5049160;28;20037;-71
2021/07/05 10:52:45;;;;;;;0.50;0.50;;;;;;;;;;5048878;28;20025;-71
2021/07/05 10:55:31;;;;;;;1.08;0.45;;;;;;;;;;5047973;28;20029;-72
2021/07/05 10:57:56;;;;;;;0.60;0.47;;;;;;;;;;5047691;28;20037;-71
2021/07/05 11:00:21;;;;;;;2.05;0.70;;;;;;;;;;5048541;28;20086;-72
2021/07/05 11:02:48;;;;;;;1.55;0.90;;;;;;;;;;5050081;28;20032;-73
2021/07/05 11:05:41;;;;;;;0.40;0.40;;;;;;;;;;5048430;28;20068;-72
2021/07/05 11:08:15;;;;;;;1.08;0.40;;;;;;;;;;5045982;28;20033;-70
2021/07/05 11:10:40;;;;;;;1.05;0.57;;;;;;;;;;5047554;28;20116;-70
2021/07/05 11:13:06;;;;;;;1.67;0.50;;;;;;;;;;5044948;28;20718;-70
2021/07/05 11:15:50;;;;;;;0.85;0.50;;;;;;;;;;5047673;28;20041;-71
2021/07/05 11:18:45;;;;;;;0.85;0.60;;;;;;;;;;5047806;28;20029;-71
2021/07/05 11:21:23;;;;;;;1.60;0.35;;;;;;;;;;5026115;28;20061;-71
2021/07/05 11:23:55;;;;;;;0.32;0.30;;;;;;;;;;5049525;28;20094;-72
2021/07/05 11:26:24;;;;;;;0.70;0.70;;;;;;;;;;5047895;28;20036;-71
2021/07/05 11:29:08;;;;;;;0.75;0.57;;;;;;;;;;5040109;28;20498;-70
2021/07/05 11:31:46;;;;;;;0.60;0.60;;;;;;;;;;5068121;28;20070;-71
2021/07/05 11:34:30;;;;;;;0.68;0.55;;;;;;;;;;5068110;28;20554;-70
2021/07/05 11:37:11;;;;;;;0.52;0.50;;;;;;;;;;5067851;28;20468;-71
2021/07/05 11:39:40;;;;;;;1.35;0.68;;;;;;;;;;5068113;28;20115;-71
2021/07/05 11:42:05;;;;;;;1.02;0.80;;;;;;;;;;5067810;28;20028;-71
2021/07/05 11:44:49;;;;;;;1.17;0.70;;;;;;;;;;5054187;28;20044;-70
2021/07/05 11:47:33;;;;;;;0.98;0.75;;;;;;;;;;5047551;28;20036;-70
2021/07/05 11:50:14;;;;;;;2.25;0.80;;;;;;;;;;5047765;28;20056;-70
2021/07/05 11:52:59;;;;;;;0.82;0.57;;;;;;;;;;5047593;28;20039;-70
2021/07/05 11:55:33;;;;;;;2.38;0.55;;;;;;;;;;5047529;28;20284;-71
2021/07/05 11:58:09;;;;;;;1.27;1.17;;;;;;;;;;5047361;28;20115;-70
2021/07/05 12:00:36;;;;;;;2.75;0.52;;;;;;;;;;5047816;28;20098;-70
2021/07/05 12:03:04;;;;;;;0.60;0.55;;;;;;;;;;5047463;28;20017;-70
2021/07/05 12:05:29;;;;;;;0.60;0.60;;;;;;;;;;5050270;28;20021;-71
2021/07/05 12:08:08;;;;;;;0.73;0.73;;;;;;;;;;5052069;28;20055;-71
2021/07/05 12:10:36;;;;;;;1.05;0.60;;;;;;;;;;5051804;28;20350;-71
2021/07/05 12:13:13;;;;;;;0.90;0.65;;;;;;;;;;5050686;28;20169;-71
2021/07/05 12:15:39;;;;;;;0.63;0.60;;;;;;;;;;5051378;28;20120;-71
2021/07/05 12:18:04;;;;;;;1.50;0.70;;;;;;;;;;5051711;28;20160;-70
2021/07/05 12:20:30;;;;;;;0.70;0.70;;;;;;;;;;5054009;28;20017;-71
2021/07/05 12:22:55;;;;;;;1.75;0.82;;;;;;;;;;5051405;28;20275;-71
2021/07/05 12:25:20;;;;;;;1.10;1.00;;;;;;;;;;5051572;28;20040;-71
2021/07/05 12:27:46;;;;;;;0.70;0.70;;;;;;;;;;5051415;28;20071;-70
2021/07/05 12:30:13;;;;;;;1.02;0.90;;;;;;;;;;5050529;28;20013;-70
2021/07/05 12:32:39;;;;;;;1.23;1.13;;;;;;;;;;5052526;28;20017;-70
2021/07/05 12:35:08;;;;;;;3.28;1.05;;;;;;;;;;5051072;28;20512;-71
2021/07/05 12:37:56;;;;;;;1.35;0.80;;;;;;;;;;5051100;28;20087;-70
2021/07/05 12:40:24;;;;;;;0.80;0.60;;;;;;;;;;5051313;28;20486;-70
2021/07/05 12:42:52;;;;;;;0.60;0.60;;;;;;;;;;5049270;28;20041;-70
2021/07/05 12:45:27;;;;;;;1.67;0.63;;;;;;;;;;5045494;28;20112;-71
2021/07/05 12:47:55;;;;;;;0.73;0.63;;;;;;;;;;5050716;28;20033;-71
2021/07/05 12:50:22;;;;;;;0.73;0.60;;;;;;;;;;5049557;28;20048;-71
2021/07/05 12:53:00;;;;;;;0.77;0.50;;;;;;;;;;5049237;28;20416;-71
2021/07/05 12:55:25;;;;;;;2.10;0.70;;;;;;;;;;5050694;28;20056;-71
2021/07/05 12:57:52;;;;;;;1.73;0.70;;;;;;;;;;5050684;28;20033;-71
2021/07/05 13:00:17;;;;;;;1.33;0.88;;;;;;;;;;5049663;28;20263;-71
2021/07/05 13:02:43;;;;;;;2.75;0.60;;;;;;;;;;5047523;28;20016;-71
2021/07/05 13:05:16;;;;;;;0.93;0.70;;;;;;;;;;5030661;28;20068;-71
2021/07/05 13:07:55;;;;;;;0.90;0.70;;;;;;;;;;5030796;28;20265;-71
2021/07/05 13:10:22;;;;;;;0.73;0.70;;;;;;;;;;5030559;28;20041;-71
2021/07/05 13:13:14;;;;;;;0.55;0.55;;;;;;;;;;5030141;28;20080;-70
2021/07/05 13:15:40;;;;;;;2.95;0.70;;;;;;;;;;5043915;28;20560;-70
2021/07/05 13:18:24;;;;;;;1.45;0.90;;;;;;;;;;5049807;28;20025;-70
2021/07/05 13:20:54;;;;;;;1.10;0.55;;;;;;;;;;5052366;28;20080;-71
2021/07/05 13:23:40;;;;;;;0.73;0.73;;;;;;;;;;5050129;28;20041;-70
2021/07/05 13:26:07;;;;;;;1.30;1.00;;;;;;;;;;5050107;28;20057;-70
2021/07/05 13:28:32;;;;;;;2.00;0.80;;;;;;;;;;5049317;28;20090;-70
2021/07/05 13:30:58;;;;;;;0.73;0.65;;;;;;;;;;5049846;28;20040;-70
2021/07/05 13:33:33;;;;;;;0.95;0.60;;;;;;;;;;5049511;28;20041;-70
2021/07/05 13:35:59;;;;;;;1.70;0.60;;;;;;;;;;5051330;28;20047;-70
2021/07/05 13:38:29;;;;;;;2.28;0.82;;;;;;;;;;5048220;28;20033;-70
2021/07/05 13:40:55;;;;;;;0.85;0.55;;;;;;;;;;5049858;28;20025;-70
2021/07/05 13:43:21;;;;;;;0.68;0.68;;;;;;;;;;5048291;28;20064;-72
2021/07/05 13:45:49;;;;;;;1.23;0.70;;;;;;;;;;5049504;28;20033;-70
2021/07/05 13:48:14;;;;;;;1.27;0.85;;;;;;;;;;5049528;28;20104;-72
2021/07/05 13:50:40;;;;;;;0.73;0.50;;;;;;;;;;5051316;28;20109;-70
2021/07/05 13:53:17;;;;;;;0.73;0.73;;;;;;;;;;5049556;28;20057;-70
2021/07/05 13:55:54;;;;;;;0.70;0.70;;;;;;;;;;5049216;28;20033;-69
2021/07/05 13:58:30;;;;;;;1.98;0.73;;;;;;;;;;5049589;28;20051;-71
2021/07/05 14:00:59;;;;;;;2.50;0.70;;;;;;;;;;5047535;28;20082;-71
2021/07/05 14:03:25;;;;;;;1.92;0.75;;;;;;;;;;5048905;28;20037;-70
2021/07/05 14:05:52;;;;;;;3.38;0.75;;;;;;;;;;5051403;28;20550;-71
2021/07/05 14:08:18;;;;;;;1.67;0.95;;;;;;;;;;5049559;28;20037;-69
2021/07/05 14:10:44;;;;;;;1.08;0.50;;;;;;;;;;5048455;28;20119;-69
2021/07/05 14:13:10;;;;;;;0.70;0.70;;;;;;;;;;5049358;28;20068;-70
2021/07/05 14:15:36;;;;;;;1.52;0.60;;;;;;;;;;5048152;28;20736;-70
2021/07/05 14:18:02;;;;;;;0.60;0.60;;;;;;;;;;5070191;28;20031;-70
2021/07/05 14:20:27;;;;;;;1.58;0.50;;;;;;;;;;5068647;28;20490;-70
2021/07/05 14:22:53;;;;;;;0.57;0.57;;;;;;;;;;5068663;28;20064;-71
2021/07/05 14:25:19;;;;;;;0.50;0.50;;;;;;;;;;5066949;28;20036;-70
2021/07/05 14:27:50;;;;;;;0.55;0.55;;;;;;;;;;5068746;28;20020;-70
2021/07/05 14:30:16;;;;;;;0.30;0.30;;;;;;;;;;5048439;28;20033;-70
2021/07/05 14:32:41;;;;;;;0.30;0.30;;;;;;;;;;5046401;28;20013;-71
2021/07/05 14:35:07;;;;;;;0.55;0.52;;;;;;;;;;5048636;28;20379;-71
2021/07/05 14:37:32;;;;;;;0.55;0.55;;;;;;;;;;5048883;28;20192;-71
2021/07/05 14:39:58;;;;;;;0.60;0.60;;;;;;;;;;5048676;28;20033;-70
2021/07/05 14:42:23;;;;;;;1.85;0.40;;;;;;;;;;5048487;28;20490;-71
2021/07/05 14:44:48;;;;;;;1.77;0.60;;;;;;;;;;5050008;28;20029;-71